Time;durP1;ratioP1;P1;durP2;ratioP2;P2;SDS_P1;SDS_P2;PMS_P1;PMS_P2;Temp;Humidity;BMP_temperature;BMP_pressure;BME280_temperature;BME280_humidity;BME280_pressure;Samples;Min_cycle;Max_cycle;Signal;HPM_P1;HPM_P2
2021/11/06 00:00:54;;;;;;;5.55;3.58;;;14.40;80.80;;;;;;5089623;28;20217;-75
2021/11/06 00:03:19;;;;;;;18.10;3.83;;;14.40;81.00;;;;;;5093743;28;20220;-74
2021/11/06 00:05:45;;;;;;;7.57;3.75;;;14.40;80.70;;;;;;5094207;28;20209;-75
2021/11/06 00:08:11;;;;;;;6.50;3.63;;;14.40;80.90;;;;;;5089925;28;20267;-74
2021/11/06 00:10:37;;;;;;;9.98;4.50;;;14.40;81.20;;;;;;5091380;28;20177;-73
2021/11/06 00:13:03;;;;;;;9.85;4.70;;;14.40;81.00;;;;;;5089465;28;20178;-75
2021/11/06 00:15:29;;;;;;;11.30;4.13;;;14.40;81.40;;;;;;5086915;28;20264;-74
2021/11/06 00:17:54;;;;;;;12.63;5.00;;;14.30;82.00;;;;;;5090662;28;20181;-75
2021/11/06 00:20:20;;;;;;;10.57;4.53;;;14.30;81.80;;;;;;5094962;28;20175;-74
2021/11/06 00:22:46;;;;;;;9.70;4.65;;;14.20;81.80;;;;;;5087167;28;20206;-74
2021/11/06 00:25:12;;;;;;;21.10;4.82;;;14.10;81.90;;;;;;5095861;28;20174;-74
2021/11/06 00:27:39;;;;;;;12.50;5.70;;;14.10;82.00;;;;;;5086024;28;20173;-74
2021/11/06 00:30:07;;;;;;;14.60;6.65;;;14.10;83.10;;;;;;5088917;28;20209;-74
2021/11/06 00:32:33;;;;;;;7.65;5.00;;;14.10;83.10;;;;;;5091942;28;20734;-74
2021/11/06 00:34:59;;;;;;;15.38;6.13;;;14.00;83.40;;;;;;5085531;28;20601;-75
2021/11/06 00:37:24;;;;;;;14.25;5.90;;;14.00;83.90;;;;;;5090947;28;20182;-74
2021/11/06 00:39:50;;;;;;;10.02;5.30;;;14.00;82.90;;;;;;5095539;28;20181;-74
2021/11/06 00:42:17;;;;;;;11.30;4.68;;;14.00;82.70;;;;;;5090331;28;21023;-74
2021/11/06 00:44:42;;;;;;;7.65;4.60;;;14.00;82.60;;;;;;5094555;28;20190;-74
2021/11/06 00:47:10;;;;;;;10.35;5.28;;;14.00;82.90;;;;;;5089164;28;20186;-74
2021/11/06 00:49:36;;;;;;;10.15;5.05;;;14.00;83.50;;;;;;5084079;28;20192;-75
2021/11/06 00:52:03;;;;;;;16.65;4.97;;;13.90;83.50;;;;;;5092370;28;20185;-74
2021/11/06 00:54:28;;;;;;;10.68;4.72;;;13.90;84.20;;;;;;5096157;28;20173;-74
2021/11/06 00:56:54;;;;;;;5.22;4.72;;;13.80;84.60;;;;;;5092414;28;20189;-74
2021/11/06 00:59:20;;;;;;;8.38;5.50;;;13.70;84.40;;;;;;5101884;28;20576;-75
2021/11/06 01:01:46;;;;;;;12.00;6.03;;;13.60;84.50;;;;;;5092192;28;20269;-75
2021/11/06 01:04:11;;;;;;;14.93;6.28;;;13.60;84.90;;;;;;5100346;28;20174;-74
2021/11/06 01:06:37;;;;;;;10.02;5.60;;;13.50;84.80;;;;;;5094955;28;20185;-75
2021/11/06 01:09:03;;;;;;;10.93;4.80;;;13.50;84.70;;;;;;5085920;28;20184;-74
2021/11/06 01:11:29;;;;;;;11.18;6.13;;;13.50;84.70;;;;;;5097526;28;20178;-74
2021/11/06 01:13:55;;;;;;;12.50;5.28;;;13.50;84.70;;;;;;5095639;28;20186;-74
2021/11/06 01:16:21;;;;;;;11.20;4.95;;;13.50;84.70;;;;;;5091746;28;20206;-74
2021/11/06 01:18:47;;;;;;;7.07;5.00;;;13.50;84.70;;;;;;5097877;28;20284;-74
2021/11/06 01:21:12;;;;;;;12.05;4.80;;;13.50;85.10;;;;;;5098595;28;20721;-74
2021/11/06 01:23:38;;;;;;;7.22;4.95;;;13.50;85.00;;;;;;5092019;28;20556;-74
2021/11/06 01:26:04;;;;;;;17.17;5.60;;;13.50;84.90;;;;;;5098319;28;20179;-74
2021/11/06 01:28:30;;;;;;;12.70;5.60;;;13.50;84.80;;;;;;5091965;28;20308;-74
2021/11/06 01:30:56;;;;;;;6.10;4.80;;;13.50;84.80;;;;;;5098508;28;20559;-74
2021/11/06 01:33:22;;;;;;;13.65;5.75;;;13.50;85.10;;;;;;5084703;28;20659;-74
2021/11/06 01:35:47;;;;;;;12.65;6.13;;;13.50;85.20;;;;;;5098867;28;20209;-74
2021/11/06 01:38:13;;;;;;;9.10;5.93;;;13.50;85.20;;;;;;5090939;28;20214;-74
2021/11/06 01:40:39;;;;;;;19.75;5.28;;;13.50;85.50;;;;;;5092982;28;20197;-74
2021/11/06 01:43:05;;;;;;;7.60;5.28;;;13.50;85.50;;;;;;5092406;28;20178;-74
2021/11/06 01:45:31;;;;;;;10.13;5.35;;;13.50;85.10;;;;;;5094607;28;20191;-74
2021/11/06 01:47:57;;;;;;;19.48;5.88;;;13.40;85.50;;;;;;5095371;28;20564;-73
2021/11/06 01:50:24;;;;;;;8.60;5.75;;;13.40;85.70;;;;;;5090065;28;20174;-75
2021/11/06 01:52:52;;;;;;;11.20;6.10;;;13.40;85.60;;;;;;5094797;28;20173;-74
2021/11/06 01:55:18;;;;;;;11.52;5.38;;;13.40;85.70;;;;;;5086039;28;20206;-74
2021/11/06 01:57:46;;;;;;;9.90;5.25;;;13.40;85.50;;;;;;5093503;28;20261;-74
2021/11/06 02:00:22;;;;;;;16.33;5.75;;;13.30;85.20;;;;;;5100312;28;20190;-73
2021/11/06 02:02:48;;;;;;;7.22;5.15;;;13.30;85.40;;;;;;5090927;28;20175;-74
2021/11/06 02:05:15;;;;;;;15.13;5.60;;;13.30;85.60;;;;;;5103845;28;20570;-74
2021/11/06 02:07:41;;;;;;;13.18;6.07;;;13.30;85.50;;;;;;5088913;28;20182;-74
2021/11/06 02:10:08;;;;;;;13.32;5.75;;;13.40;85.30;;;;;;5091788;28;20190;-74
2021/11/06 02:12:33;;;;;;;6.72;4.90;;;13.40;85.30;;;;;;5095150;28;20194;-74
2021/11/06 02:15:00;;;;;;;16.25;5.05;;;13.40;85.10;;;;;;5096426;28;20901;-74
2021/11/06 02:17:25;;;;;;;6.97;4.75;;;13.50;85.10;;;;;;5091955;28;20259;-74
2021/11/06 02:19:51;;;;;;;9.52;4.88;;;13.40;85.50;;;;;;5094806;28;20228;-74
2021/11/06 02:22:17;;;;;;;9.70;5.15;;;13.40;85.30;;;;;;5096087;28;20182;-74
2021/11/06 02:24:42;;;;;;;8.15;5.30;;;13.40;85.60;;;;;;5092028;28;20176;-74
2021/11/06 02:27:08;;;;;;;9.13;5.70;;;13.40;85.80;;;;;;5095487;28;20185;-74
2021/11/06 02:29:34;;;;;;;15.75;6.57;;;13.40;85.60;;;;;;5098097;28;20881;-74
2021/11/06 02:32:00;;;;;;;12.50;6.38;;;13.40;85.50;;;;;;5091946;28;20930;-74
2021/11/06 02:34:26;;;;;;;9.40;5.88;;;13.40;85.40;;;;;;5101710;28;20335;-74
2021/11/06 02:36:52;;;;;;;11.10;5.72;;;13.40;85.40;;;;;;5096132;28;20260;-74
2021/11/06 02:39:21;;;;;;;9.68;5.97;;;13.30;85.30;;;;;;5092624;28;20604;-74
2021/11/06 02:41:47;;;;;;;11.65;5.68;;;13.20;85.60;;;;;;5094818;28;20182;-74
2021/11/06 02:44:14;;;;;;;11.63;6.22;;;13.20;85.50;;;;;;5094352;28;20186;-74
2021/11/06 02:46:40;;;;;;;14.88;6.38;;;13.20;85.50;;;;;;5098596;28;20185;-74
2021/11/06 02:49:08;;;;;;;15.25;5.93;;;13.20;85.90;;;;;;5090315;28;20294;-74
2021/11/06 02:51:35;;;;;;;13.20;5.65;;;13.10;85.90;;;;;;5087163;28;20184;-73
2021/11/06 02:54:01;;;;;;;14.80;6.72;;;13.10;85.80;;;;;;5092327;28;20174;-75
2021/11/06 02:56:28;;;;;;;15.68;6.57;;;13.10;86.10;;;;;;5091363;28;20735;-74
2021/11/06 02:58:54;;;;;;;13.80;6.28;;;13.10;86.10;;;;;;5127896;27;20185;-74
2021/11/06 03:01:22;;;;;;;10.52;6.13;;;13.00;86.00;;;;;;5082387;28;20264;-74
2021/11/06 03:03:48;;;;;;;7.60;5.03;;;13.00;86.50;;;;;;5098174;28;20267;-74
2021/11/06 03:06:14;;;;;;;11.43;5.82;;;13.00;86.30;;;;;;5094279;28;20987;-73
2021/11/06 03:08:40;;;;;;;8.20;5.25;;;12.90;86.20;;;;;;5087082;28;20266;-73
2021/11/06 03:11:06;;;;;;;11.52;5.65;;;12.90;86.90;;;;;;5094485;28;20187;-73
2021/11/06 03:13:36;;;;;;;8.27;5.10;;;12.80;87.30;;;;;;5089997;28;20201;-73
2021/11/06 03:16:02;;;;;;;6.88;4.22;;;12.80;87.10;;;;;;5086518;28;20957;-73
2021/11/06 03:18:28;;;;;;;10.13;5.35;;;12.70;86.90;;;;;;5095483;28;20186;-73
2021/11/06 03:20:56;;;;;;;10.77;5.03;;;12.80;86.90;;;;;;5083609;28;20539;-73
2021/11/06 03:23:23;;;;;;;8.75;4.47;;;12.70;86.80;;;;;;5089153;28;20597;-73
2021/11/06 03:25:49;;;;;;;4.95;4.47;;;12.80;86.60;;;;;;5093391;28;20243;-73
2021/11/06 03:28:15;;;;;;;9.25;4.43;;;12.80;86.50;;;;;;5089720;28;20258;-74
2021/11/06 03:30:41;;;;;;;10.68;5.30;;;12.80;86.60;;;;;;5083679;28;20660;-74
2021/11/06 03:33:06;;;;;;;11.90;4.70;;;12.90;86.70;;;;;;5081260;28;20205;-73
2021/11/06 03:35:32;;;;;;;8.52;5.25;;;12.90;86.30;;;;;;5092821;28;21190;-73
2021/11/06 03:37:58;;;;;;;11.32;4.63;;;12.90;86.40;;;;;;5090953;28;20682;-73
2021/11/06 03:40:24;;;;;;;9.60;4.45;;;12.90;86.50;;;;;;5090637;28;20208;-72
2021/11/06 03:42:49;;;;;;;10.95;4.85;;;12.90;86.50;;;;;;5090743;28;20187;-73
2021/11/06 03:45:15;;;;;;;13.07;5.57;;;12.90;86.90;;;;;;5092541;28;20198;-74
2021/11/06 03:47:41;;;;;;;10.65;5.93;;;12.80;87.20;;;;;;5087165;28;20242;-73
2021/11/06 03:50:09;;;;;;;4.88;4.15;;;12.80;87.00;;;;;;5095852;28;20182;-73
2021/11/06 03:52:35;;;;;;;10.85;4.82;;;12.80;87.00;;;;;;5078297;28;20212;-73
2021/11/06 03:55:01;;;;;;;11.85;4.95;;;12.80;86.80;;;;;;5090996;28;20722;-73
2021/11/06 03:57:27;;;;;;;8.30;4.18;;;12.80;86.80;;;;;;5095067;28;20186;-74
2021/11/06 03:59:52;;;;;;;10.25;4.57;;;12.80;86.90;;;;;;5094800;28;20187;-74
2021/11/06 04:02:18;;;;;;;12.50;4.95;;;12.80;87.20;;;;;;5088660;28;20182;-73
2021/11/06 04:04:44;;;;;;;5.40;4.30;;;12.80;87.10;;;;;;5094924;28;20190;-73
2021/11/06 04:07:10;;;;;;;13.10;3.95;;;12.80;86.90;;;;;;5092063;28;20174;-74
2021/11/06 04:09:35;;;;;;;8.88;4.13;;;12.80;86.70;;;;;;5097569;28;20194;-74
2021/11/06 04:12:01;;;;;;;4.95;4.05;;;12.80;87.10;;;;;;5094855;28;20273;-74
2021/11/06 04:14:27;;;;;;;6.35;4.47;;;12.80;86.90;;;;;;5096473;28;20257;-73
2021/11/06 04:16:53;;;;;;;4.53;3.30;;;12.80;86.80;;;;;;5084791;28;20226;-74
2021/11/06 04:19:19;;;;;;;7.43;4.03;;;12.80;86.60;;;;;;5094325;28;20193;-74
2021/11/06 04:21:45;;;;;;;7.65;4.20;;;12.80;86.70;;;;;;5097206;28;20178;-73
2021/11/06 04:24:10;;;;;;;10.20;4.13;;;12.80;86.90;;;;;;5094439;28;20174;-73
2021/11/06 04:26:36;;;;;;;6.55;4.28;;;12.80;87.50;;;;;;5097349;28;20324;-72
2021/11/06 04:29:02;;;;;;;10.30;4.07;;;12.80;87.10;;;;;;5094069;28;20182;-74
2021/11/06 04:31:28;;;;;;;8.32;4.32;;;12.80;86.90;;;;;;5088068;28;20181;-74
2021/11/06 04:33:54;;;;;;;10.10;3.97;;;12.80;86.90;;;;;;5087050;28;20182;-74
2021/11/06 04:36:21;;;;;;;8.25;4.35;;;12.80;87.00;;;;;;5085135;28;20225;-74
2021/11/06 04:38:47;;;;;;;7.88;4.50;;;12.80;87.80;;;;;;5087704;28;20186;-75
2021/11/06 04:41:13;;;;;;;6.55;4.68;;;12.80;87.60;;;;;;5092454;28;20708;-74
2021/11/06 04:43:39;;;;;;;5.32;3.63;;;12.80;87.70;;;;;;5090675;28;20710;-74
2021/11/06 04:46:05;;;;;;;5.70;3.97;;;12.80;88.40;;;;;;5090127;28;20384;-74
2021/11/06 04:48:31;;;;;;;12.25;4.15;;;12.70;88.60;;;;;;5087208;28;20865;-74
2021/11/06 04:50:56;;;;;;;9.13;4.80;;;12.80;88.10;;;;;;5090077;28;20569;-74
2021/11/06 04:53:22;;;;;;;6.97;4.30;;;12.80;88.30;;;;;;5093142;28;20186;-74
2021/11/06 04:55:48;;;;;;;4.82;3.95;;;12.80;88.30;;;;;;5092741;28;20221;-74
2021/11/06 04:58:14;;;;;;;7.10;4.82;;;12.80;88.70;;;;;;5092552;28;20189;-74
2021/11/06 05:00:40;;;;;;;11.73;4.18;;;12.80;88.50;;;;;;5088290;28;20189;-74
2021/11/06 05:03:06;;;;;;;7.80;3.28;;;12.80;88.80;;;;;;5087262;28;20189;-74
2021/11/06 05:05:31;;;;;;;10.38;5.03;;;12.80;88.90;;;;;;5091206;28;20682;-74
2021/11/06 05:07:57;;;;;;;6.78;4.25;;;12.70;89.50;;;;;;5085342;28;20250;-74
2021/11/06 05:10:23;;;;;;;6.68;5.00;;;12.70;89.10;;;;;;5092776;28;20308;-75
2021/11/06 05:12:49;;;;;;;8.35;4.35;;;12.60;89.20;;;;;;5084627;28;20183;-74
2021/11/06 05:15:16;;;;;;;13.25;5.30;;;12.60;89.20;;;;;;5090857;28;20209;-74
2021/11/06 05:17:42;;;;;;;9.55;4.20;;;12.50;89.30;;;;;;5094756;28;20178;-74
2021/11/06 05:20:08;;;;;;;14.95;4.47;;;12.50;89.40;;;;;;5090266;28;20663;-74
2021/11/06 05:22:34;;;;;;;6.65;4.50;;;12.50;89.10;;;;;;5088548;28;20219;-74
2021/11/06 05:25:02;;;;;;;6.43;4.88;;;12.50;89.00;;;;;;5095487;28;20677;-74
2021/11/06 05:27:29;;;;;;;15.13;4.43;;;12.50;88.80;;;;;;5091054;28;21008;-74
2021/11/06 05:29:55;;;;;;;8.93;4.72;;;12.50;88.90;;;;;;5090985;28;20182;-74
2021/11/06 05:32:21;;;;;;;6.65;4.70;;;12.50;88.90;;;;;;5089596;28;20182;-74
2021/11/06 05:34:47;;;;;;;10.55;5.38;;;12.50;88.60;;;;;;5086645;28;21847;-74
2021/11/06 05:37:12;;;;;;;13.50;4.35;;;12.60;88.90;;;;;;5096380;28;20189;-74
2021/11/06 05:39:38;;;;;;;6.70;3.75;;;12.60;89.00;;;;;;5083893;28;20178;-75
2021/11/06 05:42:04;;;;;;;11.20;5.15;;;12.60;88.80;;;;;;5091399;28;20190;-75
2021/11/06 05:44:30;;;;;;;11.45;4.88;;;12.60;88.50;;;;;;5091181;28;20177;-74
2021/11/06 05:46:55;;;;;;;7.30;4.70;;;12.70;88.40;;;;;;5094400;28;20698;-74
2021/11/06 05:49:21;;;;;;;8.13;3.83;;;12.70;88.30;;;;;;5092853;28;20185;-75
2021/11/06 05:51:47;;;;;;;6.80;3.95;;;12.80;88.10;;;;;;5098521;28;20201;-72
2021/11/06 05:54:14;;;;;;;4.60;4.13;;;12.80;88.00;;;;;;5094636;28;20211;-73
2021/11/06 05:56:41;;;;;;;6.50;4.15;;;12.90;87.90;;;;;;5092274;28;20233;-74
2021/11/06 05:59:08;;;;;;;6.38;4.00;;;12.90;88.00;;;;;;5094293;28;20186;-74
2021/11/06 06:01:34;;;;;;;9.48;4.45;;;13.00;87.60;;;;;;5095087;28;20174;-74
2021/11/06 06:04:00;;;;;;;8.45;4.55;;;13.10;87.60;;;;;;5091995;28;20186;-73
2021/11/06 06:06:26;;;;;;;19.52;4.65;;;13.10;87.60;;;;;;5096332;28;20280;-75
2021/11/06 06:08:52;;;;;;;8.18;3.95;;;13.10;88.10;;;;;;5091122;28;20181;-73
2021/11/06 06:11:18;;;;;;;14.13;4.53;;;13.00;88.10;;;;;;5097878;28;20180;-73
2021/11/06 06:13:44;;;;;;;9.20;3.65;;;13.10;87.80;;;;;;5095244;28;20715;-74
2021/11/06 06:16:10;;;;;;;7.63;4.78;;;13.10;87.70;;;;;;5091935;28;20290;-73
2021/11/06 06:18:35;;;;;;;6.47;4.05;;;13.10;87.60;;;;;;5096908;28;20174;-73
2021/11/06 06:21:01;;;;;;;8.82;4.97;;;13.10;88.00;;;;;;5098816;28;20201;-73
2021/11/06 06:23:27;;;;;;;8.85;4.35;;;13.20;87.80;;;;;;5095220;28;20175;-74
2021/11/06 06:25:53;;;;;;;6.00;4.30;;;13.20;88.60;;;;;;5096889;28;20182;-75
2021/11/06 06:28:18;;;;;;;5.97;4.88;;;13.20;88.50;;;;;;5093949;28;20253;-75
2021/11/06 06:30:44;;;;;;;9.05;4.20;;;13.30;88.50;;;;;;5095982;28;20189;-74
2021/11/06 06:33:12;;;;;;;13.52;5.10;;;13.40;88.20;;;;;;5097481;28;20279;-74
2021/11/06 06:35:37;;;;;;;5.22;4.63;;;13.40;88.40;;;;;;5101775;28;20255;-74
2021/11/06 06:38:03;;;;;;;9.75;5.55;;;13.50;88.40;;;;;;5094175;28;20181;-75
2021/11/06 06:40:29;;;;;;;13.25;5.28;;;13.60;88.30;;;;;;5095437;28;20279;-74
2021/11/06 06:42:55;;;;;;;6.82;4.40;;;13.70;88.00;;;;;;5090035;28;20542;-74
2021/11/06 06:45:22;;;;;;;6.28;4.15;;;13.80;87.90;;;;;;5094112;28;20272;-74
2021/11/06 06:47:48;;;;;;;5.75;4.88;;;13.90;87.70;;;;;;5080253;28;20183;-75
2021/11/06 06:50:15;;;;;;;10.27;5.10;;;14.00;87.80;;;;;;5086227;28;20656;-74
2021/11/06 06:52:41;;;;;;;8.98;5.13;;;14.10;87.90;;;;;;5089473;28;20277;-74
2021/11/06 06:55:07;;;;;;;6.45;5.30;;;14.20;87.30;;;;;;5093379;28;20343;-73
2021/11/06 06:57:33;;;;;;;7.78;5.03;;;14.20;88.00;;;;;;5093436;28;21340;-73
2021/11/06 06:59:59;;;;;;;8.13;5.47;;;14.30;87.30;;;;;;5093958;28;20351;-73
2021/11/06 07:02:24;;;;;;;5.05;4.55;;;14.40;87.10;;;;;;5091195;28;20578;-73
2021/11/06 07:04:50;;;;;;;9.10;5.03;;;14.50;87.10;;;;;;5093007;28;20182;-73
2021/11/06 07:07:16;;;;;;;8.40;4.53;;;14.60;87.10;;;;;;5093790;28;20257;-73
2021/11/06 07:09:42;;;;;;;10.70;5.55;;;14.80;87.00;;;;;;5089959;28;20656;-73
2021/11/06 07:12:08;;;;;;;8.77;5.60;;;14.90;87.00;;;;;;5093688;28;20667;-73
2021/11/06 07:14:34;;;;;;;10.90;5.38;;;15.00;86.70;;;;;;5097080;28;20205;-73
2021/11/06 07:17:00;;;;;;;12.18;6.10;;;15.10;86.60;;;;;;5086947;28;20730;-73
2021/11/06 07:19:26;;;;;;;13.00;5.60;;;15.20;86.50;;;;;;5088298;28;20178;-76
2021/11/06 07:21:52;;;;;;;9.40;5.63;;;15.30;86.20;;;;;;5087027;28;20200;-75
2021/11/06 07:24:18;;;;;;;6.57;5.85;;;15.40;85.80;;;;;;5086793;28;20185;-75
2021/11/06 07:26:43;;;;;;;10.30;5.68;;;15.50;85.50;;;;;;5092726;28;20727;-76
2021/11/06 07:29:09;;;;;;;9.77;5.75;;;15.60;85.70;;;;;;5091311;28;20246;-75
2021/11/06 07:31:35;;;;;;;10.57;6.50;;;15.70;84.90;;;;;;5089055;28;20271;-75
2021/11/06 07:34:01;;;;;;;7.22;5.40;;;15.70;85.10;;;;;;5087039;28;20174;-75
2021/11/06 07:36:27;;;;;;;7.57;5.47;;;15.80;84.80;;;;;;5090145;28;20239;-75
2021/11/06 07:38:53;;;;;;;6.22;5.03;;;15.90;84.70;;;;;;5089851;28;20182;-75
2021/11/06 07:41:21;;;;;;;6.38;4.68;;;16.00;84.60;;;;;;5087272;28;20203;-75
2021/11/06 07:43:48;;;;;;;8.93;6.20;;;16.10;84.60;;;;;;5086738;28;20284;-75
2021/11/06 07:46:14;;;;;;;8.38;5.38;;;16.30;84.70;;;;;;5087453;28;20213;-75
2021/11/06 07:48:39;;;;;;;8.82;5.75;;;16.40;84.20;;;;;;5083706;28;20186;-75
2021/11/06 07:51:05;;;;;;;5.18;4.70;;;16.70;83.90;;;;;;5091618;28;20193;-75
2021/11/06 07:53:31;;;;;;;15.85;5.63;;;16.90;83.60;;;;;;5089540;28;20190;-76
2021/11/06 07:55:57;;;;;;;7.70;5.53;;;17.10;82.90;;;;;;5091979;28;20254;-77
2021/11/06 07:58:23;;;;;;;10.90;5.97;;;17.30;82.10;;;;;;5080816;28;20276;-75
2021/11/06 08:00:49;;;;;;;7.85;6.05;;;17.50;81.30;;;;;;5089859;28;20262;-75
2021/11/06 08:03:15;;;;;;;8.07;6.07;;;17.70;81.30;;;;;;5086024;28;20194;-75
2021/11/06 08:05:42;;;;;;;8.27;6.10;;;17.80;80.10;;;;;;5087030;28;20254;-75
2021/11/06 08:08:08;;;;;;;14.55;5.90;;;18.00;79.80;;;;;;5082063;28;20193;-77
2021/11/06 08:10:34;;;;;;;8.73;6.03;;;18.20;79.30;;;;;;5089954;28;20899;-76
2021/11/06 08:13:01;;;;;;;6.15;5.55;;;18.40;79.50;;;;;;5086858;28;20187;-79
2021/11/06 08:15:28;;;;;;;14.75;6.13;;;18.60;78.30;;;;;;5087296;28;20252;-77
2021/11/06 08:17:53;;;;;;;7.00;5.38;;;18.80;77.90;;;;;;5092469;28;20242;-77
2021/11/06 08:20:22;;;;;;;7.72;5.45;;;18.90;77.30;;;;;;5090270;28;20660;-76
2021/11/06 08:22:48;;;;;;;8.80;5.68;;;19.10;76.90;;;;;;5088199;28;20588;-76
2021/11/06 08:25:16;;;;;;;6.97;5.38;;;19.20;76.90;;;;;;5081522;28;21003;-78
2021/11/06 08:27:54;;;;;;;7.30;5.97;;;19.30;76.80;;;;;;5088856;28;20244;-80
2021/11/06 08:30:22;;;;;;;7.28;5.78;;;19.30;76.00;;;;;;5087428;28;20610;-78
2021/11/06 08:32:49;;;;;;;6.68;5.80;;;19.30;76.20;;;;;;5087168;28;20185;-77
2021/11/06 08:35:16;;;;;;;5.50;4.90;;;19.40;76.10;;;;;;5083930;28;20214;-78
2021/11/06 08:37:43;;;;;;;6.40;4.80;;;19.50;75.90;;;;;;5086475;28;20188;-78
2021/11/06 08:40:10;;;;;;;5.65;4.80;;;19.80;76.00;;;;;;5088812;28;20178;-74
2021/11/06 08:42:36;;;;;;;4.93;4.15;;;20.00;75.30;;;;;;5086795;28;20616;-77
2021/11/06 08:45:09;;;;;;;4.03;3.72;;;20.20;74.50;;;;;;5091462;28;20190;-77
2021/11/06 08:47:35;;;;;;;4.13;3.83;;;20.50;74.30;;;;;;5087844;28;20177;-77
2021/11/06 08:50:02;;;;;;;5.43;3.97;;;20.80;73.60;;;;;;5088345;28;20185;-75
2021/11/06 08:52:28;;;;;;;3.95;3.67;;;21.20;72.80;;;;;;5090445;28;20197;-76
2021/11/06 08:54:54;;;;;;;4.68;3.72;;;21.60;72.20;;;;;;5089132;28;20723;-74
2021/11/06 08:57:21;;;;;;;7.85;4.35;;;22.00;71.30;;;;;;5086831;28;20232;-76
2021/11/06 08:59:54;;;;;;;8.25;4.10;;;22.40;70.60;;;;;;5094393;28;20181;-76
2021/11/06 09:02:20;;;;;;;8.65;4.63;;;22.80;70.10;;;;;;5092581;28;20182;-76
2021/11/06 09:04:49;;;;;;;5.07;4.45;;;23.20;69.60;;;;;;5089826;28;20724;-77
2021/11/06 09:07:16;;;;;;;4.00;3.70;;;23.60;69.20;;;;;;5088453;28;20175;-76
2021/11/06 09:09:42;;;;;;;4.30;3.90;;;24.20;68.40;;;;;;5090547;28;20184;-76
2021/11/06 09:12:09;;;;;;;3.95;3.50;;;24.60;67.10;;;;;;5093345;28;20187;-77
2021/11/06 09:14:34;;;;;;;4.95;3.45;;;25.00;65.60;;;;;;5099660;28;20177;-77
2021/11/06 09:17:00;;;;;;;4.50;3.97;;;25.20;64.80;;;;;;5091728;28;20574;-81
2021/11/06 09:19:26;;;;;;;4.47;3.65;;;25.30;64.60;;;;;;5091751;28;20270;-74
2021/11/06 09:21:52;;;;;;;6.22;3.63;;;25.30;64.10;;;;;;5090959;28;20270;-74
2021/11/06 09:24:18;;;;;;;5.53;4.13;;;25.10;64.10;;;;;;5087414;28;20228;-74
2021/11/06 09:26:45;;;;;;;7.30;4.10;;;25.10;64.00;;;;;;5096429;28;20175;-74
2021/11/06 09:29:12;;;;;;;6.50;3.83;;;25.00;63.60;;;;;;5097619;28;20204;-75
2021/11/06 09:31:38;;;;;;;5.30;4.13;;;24.60;63.80;;;;;;5091819;28;20175;-74
2021/11/06 09:34:05;;;;;;;4.55;4.15;;;24.30;64.40;;;;;;5096459;28;20181;-76
2021/11/06 09:36:32;;;;;;;4.10;3.78;;;24.00;65.20;;;;;;5091040;28;20224;-76
2021/11/06 09:39:01;;;;;;;7.30;4.55;;;23.90;65.50;;;;;;5095200;28;20202;-74
2021/11/06 09:41:27;;;;;;;4.28;3.88;;;23.70;65.50;;;;;;5094616;28;20166;-75
2021/11/06 09:43:53;;;;;;;4.13;3.58;;;23.40;65.60;;;;;;5098223;28;20220;-75
2021/11/06 09:46:19;;;;;;;4.20;3.83;;;23.20;66.50;;;;;;5091431;28;20674;-75
2021/11/06 09:48:46;;;;;;;8.95;4.25;;;23.00;66.60;;;;;;5090847;28;20190;-75
2021/11/06 09:51:15;;;;;;;5.72;3.53;;;22.80;67.20;;;;;;5088586;28;20183;-75
2021/11/06 09:53:42;;;;;;;11.13;3.90;;;22.50;67.60;;;;;;5098712;28;20184;-75
2021/11/06 09:56:13;;;;;;;4.38;4.05;;;22.30;67.70;;;;;;5098113;28;20222;-76
2021/11/06 09:58:40;;;;;;;4.20;3.25;;;22.10;68.30;;;;;;5094014;28;20189;-76
2021/11/06 10:01:06;;;;;;;3.80;3.47;;;21.90;68.60;;;;;;5096715;28;20265;-76
2021/11/06 10:03:34;;;;;;;3.55;3.25;;;21.70;68.70;;;;;;5097274;28;20256;-76
2021/11/06 10:06:02;;;;;;;4.15;2.97;;;21.50;69.10;;;;;;5091829;28;20261;-76
2021/11/06 10:08:36;;;;;;;3.60;3.33;;;21.40;69.40;;;;;;5092662;28;20182;-76
2021/11/06 10:11:11;;;;;;;8.07;3.85;;;21.30;69.60;;;;;;5091968;28;20559;-73
2021/11/06 10:13:55;;;;;;;3.50;3.08;;;21.10;69.70;;;;;;5093632;28;20242;-75
2021/11/06 10:16:32;;;;;;;7.20;3.55;;;21.10;69.90;;;;;;5094878;28;20206;-73
2021/11/06 10:19:07;;;;;;;7.65;3.65;;;20.90;70.30;;;;;;5092109;28;20213;-76
2021/11/06 10:21:33;;;;;;;9.48;4.60;;;20.70;70.70;;;;;;5085512;28;20777;-76
2021/11/06 10:23:59;;;;;;;5.00;3.70;;;20.50;71.00;;;;;;5091398;28;20320;-76
2021/11/06 10:26:25;;;;;;;3.75;3.42;;;20.40;71.30;;;;;;5087594;28;20269;-76
2021/11/06 10:29:10;;;;;;;9.00;4.50;;;20.30;71.90;;;;;;5090539;28;20189;-72
2021/11/06 10:31:55;;;;;;;5.10;4.15;;;20.20;72.00;;;;;;5094533;28;20226;-72
2021/11/06 10:34:22;;;;;;;5.63;3.45;;;20.30;72.20;;;;;;5085970;28;20617;-76
2021/11/06 10:37:02;;;;;;;11.52;4.47;;;20.30;71.90;;;;;;5092760;28;20222;-75
2021/11/06 10:39:29;;;;;;;4.75;4.20;;;20.40;71.80;;;;;;5093156;28;20662;-78
2021/11/06 10:42:12;;;;;;;4.32;3.90;;;20.50;71.90;;;;;;5086454;28;20446;-75
2021/11/06 10:44:40;;;;;;;4.35;4.05;;;20.60;71.60;;;;;;5090649;28;20182;-75
2021/11/06 10:47:12;;;;;;;6.18;4.75;;;20.70;71.50;;;;;;5080231;28;20698;-74
2021/11/06 10:49:46;;;;;;;7.38;4.15;;;20.80;71.10;;;;;;5088078;28;20182;-75
2021/11/06 10:52:20;;;;;;;5.18;4.53;;;20.90;71.00;;;;;;5090716;28;20247;-75
2021/11/06 10:55:06;;;;;;;4.45;4.07;;;21.00;70.90;;;;;;5088995;28;20173;-73
2021/11/06 10:57:33;;;;;;;9.93;4.93;;;21.00;71.00;;;;;;5086880;28;20189;-75
2021/11/06 11:00:04;;;;;;;7.75;4.90;;;21.10;70.90;;;;;;5086047;28;20189;-75
2021/11/06 11:02:30;;;;;;;11.30;5.10;;;21.10;70.70;;;;;;5090069;28;20189;-75
2021/11/06 11:04:56;;;;;;;12.05;4.90;;;21.20;70.80;;;;;;5090998;28;20178;-75
2021/11/06 11:07:21;;;;;;;8.52;4.95;;;21.30;70.60;;;;;;5095948;28;20178;-74
2021/11/06 11:09:47;;;;;;;6.70;4.68;;;21.60;70.50;;;;;;5095151;28;20264;-75
2021/11/06 11:12:17;;;;;;;6.70;4.28;;;22.00;70.10;;;;;;5095262;28;20189;-75
2021/11/06 11:14:52;;;;;;;4.28;3.90;;;22.60;69.60;;;;;;5093145;28;20174;-75
2021/11/06 11:17:19;;;;;;;6.45;4.80;;;23.30;68.50;;;;;;5089756;28;20569;-75
2021/11/06 11:19:46;;;;;;;5.88;5.13;;;24.00;66.60;;;;;;5088109;28;20185;-75
2021/11/06 11:22:25;;;;;;;5.82;4.88;;;24.40;64.90;;;;;;5097580;28;20175;-75
2021/11/06 11:24:52;;;;;;;5.30;4.50;;;24.70;64.70;;;;;;5091488;28;20670;-75
2021/11/06 11:27:18;;;;;;;7.20;5.13;;;25.00;64.00;;;;;;5093418;28;20570;-75
2021/11/06 11:29:45;;;;;;;4.60;4.15;;;25.00;63.70;;;;;;5088494;28;20190;-75
2021/11/06 11:32:13;;;;;;;5.40;4.55;;;24.70;63.90;;;;;;5093725;28;20178;-75
2021/11/06 11:34:43;;;;;;;6.05;5.35;;;24.50;64.40;;;;;;5093966;28;20247;-74
2021/11/06 11:37:10;;;;;;;8.27;5.88;;;24.30;64.60;;;;;;5094211;28;21494;-74
2021/11/06 11:39:36;;;;;;;8.50;5.85;;;24.00;64.70;;;;;;5091719;28;21021;-75
2021/11/06 11:42:20;;;;;;;6.68;6.05;;;23.60;65.40;;;;;;5083439;28;20213;-75
2021/11/06 11:45:23;;;;;;;6.60;4.88;;;23.30;66.20;;;;;;5087328;28;20200;-75
2021/11/06 11:47:55;;;;;;;5.65;4.90;;;23.10;66.70;;;;;;5086458;28;20316;-75
2021/11/06 11:50:30;;;;;;;9.80;5.68;;;23.00;67.00;;;;;;5090397;28;20224;-75
2021/11/06 11:53:01;;;;;;;5.78;5.18;;;22.90;67.10;;;;;;5091000;28;20224;-75
2021/11/06 11:55:42;;;;;;;5.90;4.80;;;22.90;67.20;;;;;;5091842;28;20202;-75
2021/11/06 11:58:10;;;;;;;5.25;4.68;;;23.10;67.00;;;;;;5090394;28;20244;-75
2021/11/06 12:00:40;;;;;;;5.68;4.30;;;23.30;66.90;;;;;;5089374;28;20186;-75
2021/11/06 12:03:06;;;;;;;4.55;3.60;;;23.40;66.40;;;;;;5087062;28;20182;-75
2021/11/06 12:05:34;;;;;;;6.47;4.05;;;23.60;65.90;;;;;;5093993;28;20198;-75
2021/11/06 12:08:09;;;;;;;4.00;3.65;;;23.80;66.00;;;;;;5081866;28;20174;-75
2021/11/06 12:10:46;;;;;;;4.15;3.70;;;24.00;65.60;;;;;;5092531;28;20588;-74
2021/11/06 12:13:27;;;;;;;7.13;3.92;;;24.30;65.20;;;;;;5082101;28;20269;-75
2021/11/06 12:15:58;;;;;;;3.90;3.60;;;24.60;64.80;;;;;;5086426;28;20245;-76
2021/11/06 12:18:33;;;;;;;4.05;3.75;;;25.00;64.30;;;;;;5085364;28;20178;-75
2021/11/06 12:21:24;;;;;;;8.05;4.30;;;25.30;63.10;;;;;;5086688;28;20193;-80
2021/11/06 12:23:57;;;;;;;8.18;4.03;;;25.60;62.50;;;;;;5081972;28;20186;-77
2021/11/06 12:26:23;;;;;;;6.70;3.92;;;25.60;62.50;;;;;;5088347;28;20201;-77
2021/11/06 12:29:07;;;;;;;5.65;3.58;;;25.60;62.50;;;;;;5091770;28;20659;-78
2021/11/06 12:31:33;;;;;;;8.50;3.97;;;25.60;62.10;;;;;;5084486;28;20182;-75
2021/11/06 12:34:01;;;;;;;6.95;3.53;;;25.60;61.70;;;;;;5095880;28;20205;-76
2021/11/06 12:36:30;;;;;;;6.88;4.50;;;25.80;62.30;;;;;;5089456;28;20735;-74
2021/11/06 12:38:57;;;;;;;4.30;4.03;;;25.90;62.10;;;;;;5089860;28;20182;-78
2021/11/06 12:41:31;;;;;;;7.90;4.65;;;26.10;61.90;;;;;;5090984;28;20214;-80
2021/11/06 12:43:59;;;;;;;5.07;4.57;;;26.20;61.80;;;;;;5089645;28;20185;-77